Time,TemperatureF,DewpointF,PressureIn,WindDirection,WindDirectionDegrees,WindSpeedMPH,WindSpeedGustMPH,Humidity,HourlyPrecipIn,Conditions,Clouds,dailyrainin,SolarRadiationWatts/m^2,SoftwareType,DateUTC
2013-03-03 00:02:00,27.0,24.0,-100.00,NNW,327,3.0,3.0,87,0.00,,,0.00,0.000000,,2013-03-03 06:02:00,
2013-03-03 00:32:00,26.0,24.0,-100.00,NW,304,2.0,3.0,93,0.00,,,0.00,0.000000,,2013-03-03 06:32:00,
2013-03-03 00:42:00,26.0,24.0,-100.00,NW,304,2.0,3.0,93,0.00,,,0.00,0.000000,,2013-03-03 06:42:00,
2013-03-03 00:52:00,26.0,24.0,-100.00,NW,304,2.0,3.0,93,0.00,,,0.00,0.000000,,2013-03-03 06:52:00,
2013-03-03 01:01:00,26.0,24.0,-100.00,NW,304,2.0,3.0,93,0.00,,,0.00,0.000000,,2013-03-03 07:01:00,
2013-03-03 01:32:00,26.0,24.0,-100.00,North,360,0.0,4.0,92,0.00,,,0.00,0.000000,,2013-03-03 07:32:00,
2013-03-03 01:42:00,26.0,24.0,-100.00,North,360,0.0,4.0,92,0.00,,,0.00,0.000000,,2013-03-03 07:42:00,
2013-03-03 01:52:00,26.0,24.0,-100.00,North,360,0.0,4.0,92,0.00,,,0.00,0.000000,,2013-03-03 07:52:00,
2013-03-03 02:01:00,26.0,24.0,-100.00,North,360,0.0,4.0,92,0.00,,,0.00,0.000000,,2013-03-03 08:01:00,
2013-03-03 02:32:00,25.0,23.0,-100.00,NNW,330,0.0,3.0,93,0.00,,,0.00,0.000000,,2013-03-03 08:32:00,
2013-03-03 02:42:00,25.0,23.0,-100.00,NNW,330,0.0,3.0,93,0.00,,,0.00,0.000000,,2013-03-03 08:42:00,
2013-03-03 02:54:00,25.0,23.0,-100.00,NNW,330,0.0,3.0,93,0.00,,,0.00,0.000000,,2013-03-03 08:54:00,
2013-03-03 03:01:00,25.0,23.0,-100.00,NNW,330,0.0,3.0,93,0.00,,,0.00,0.000000,,2013-03-03 09:01:00,
2013-03-03 03:32:00,24.0,23.0,-100.00,WNW,295,2.0,3.0,96,0.00,,,0.00,0.000000,,2013-03-03 09:32:00,
2013-03-03 03:42:00,24.0,23.0,-100.00,WNW,295,2.0,3.0,96,0.00,,,0.00,0.000000,,2013-03-03 09:42:00,
2013-03-03 03:52:00,24.0,23.0,-100.00,WNW,295,2.0,3.0,96,0.00,,,0.00,0.000000,,2013-03-03 09:52:00,
2013-03-03 04:01:00,24.0,23.0,-100.00,WNW,295,2.0,3.0,96,0.00,,,0.00,0.000000,,2013-03-03 10:01:00,
2013-03-03 04:32:00,24.0,24.0,-100.00,West,269,0.0,2.0,99,0.00,,,0.00,0.000000,,2013-03-03 10:32:00,
2013-03-03 04:42:00,24.0,24.0,-100.00,West,269,0.0,2.0,99,0.00,,,0.00,0.000000,,2013-03-03 10:42:00,
2013-03-03 04:52:00,24.0,24.0,-100.00,West,269,0.0,2.0,99,0.00,,,0.00,0.000000,,2013-03-03 10:52:00,
2013-03-03 05:01:00,24.0,24.0,-100.00,West,269,0.0,2.0,99,0.00,,,0.00,0.000000,,2013-03-03 11:01:00,
2013-03-03 05:32:00,23.0,23.0,-100.00,NW,305,1.0,2.0,99,0.00,,,0.00,0.000000,,2013-03-03 11:32:00,
2013-03-03 05:42:00,23.0,23.0,-100.00,NW,305,1.0,2.0,99,0.00,,,0.00,0.000000,,2013-03-03 11:42:00,
2013-03-03 05:52:00,23.0,23.0,-100.00,NW,305,1.0,2.0,99,0.00,,,0.00,0.000000,,2013-03-03 11:52:00,
2013-03-03 06:01:00,23.0,23.0,-100.00,NW,305,1.0,2.0,99,0.00,,,0.00,0.000000,,2013-03-03 12:01:00,
2013-03-03 06:32:00,23.0,23.0,-100.00,West,259,1.0,3.0,99,0.00,,,0.00,0.000000,,2013-03-03 12:32:00,
2013-03-03 06:43:00,23.0,23.0,-100.00,West,259,1.0,3.0,99,0.00,,,0.00,0.000000,,2013-03-03 12:43:00,
2013-03-03 06:53:00,23.0,23.0,-100.00,West,259,1.0,3.0,99,0.00,,,0.00,0.000000,,2013-03-03 12:53:00,
2013-03-03 07:01:00,23.0,23.0,-100.00,West,259,1.0,3.0,99,0.00,,,0.00,0.000000,,2013-03-03 13:01:00,
2013-03-03 07:32:00,26.0,26.0,-100.00,WNW,282,2.0,3.0,98,0.00,,,0.00,29.000000,,2013-03-03 13:32:00,
2013-03-03 07:42:00,26.0,26.0,-100.00,WNW,282,2.0,3.0,98,0.00,,,0.00,29.000000,,2013-03-03 13:42:00,
2013-03-03 07:52:00,26.0,26.0,-100.00,WNW,282,2.0,3.0,98,0.00,,,0.00,29.000000,,2013-03-03 13:52:00,
2013-03-03 08:02:00,26.0,26.0,-100.00,WNW,282,2.0,3.0,98,0.00,,,0.00,29.000000,,2013-03-03 14:02:00,
2013-03-03 08:32:00,34.0,25.0,-100.00,NW,314,4.0,7.0,69,0.00,,,0.00,233.000000,,2013-03-03 14:32:00,
2013-03-03 08:42:00,34.0,25.0,-100.00,NW,314,4.0,7.0,69,0.00,,,0.00,233.000000,,2013-03-03 14:42:00,
2013-03-03 08:52:00,34.0,25.0,-100.00,NW,314,4.0,7.0,69,0.00,,,0.00,233.000000,,2013-03-03 14:52:00,
2013-03-03 09:01:00,34.0,25.0,-100.00,NW,314,4.0,7.0,69,0.00,,,0.00,233.000000,,2013-03-03 15:01:00,
2013-03-03 09:32:00,38.0,21.0,-100.00,NNW,346,7.0,12.0,49,0.00,,,0.00,440.000000,,2013-03-03 15:32:00,
2013-03-03 09:42:00,38.0,21.0,-100.00,NNW,346,7.0,12.0,49,0.00,,,0.00,440.000000,,2013-03-03 15:42:00,
2013-03-03 09:52:00,38.0,21.0,-100.00,NNW,346,7.0,12.0,49,0.00,,,0.00,440.000000,,2013-03-03 15:52:00,
2013-03-03 10:01:00,38.0,21.0,-100.00,NNW,346,7.0,12.0,49,0.00,,,0.00,440.000000,,2013-03-03 16:01:00,
2013-03-03 10:32:00,42.0,20.0,-100.00,NW,320,4.0,12.0,41,0.00,,,0.00,622.000000,,2013-03-03 16:32:00,
2013-03-03 10:42:00,42.0,20.0,-100.00,NW,320,4.0,12.0,41,0.00,,,0.00,622.000000,,2013-03-03 16:42:00,
2013-03-03 10:52:00,42.0,20.0,-100.00,NW,320,4.0,12.0,41,0.00,,,0.00,622.000000,,2013-03-03 16:52:00,
2013-03-03 11:01:00,42.0,20.0,-100.00,NW,320,4.0,12.0,41,0.00,,,0.00,622.000000,,2013-03-03 17:01:00,
2013-03-03 11:32:00,46.0,19.0,-100.00,WNW,296,5.0,10.0,34,0.00,,,0.00,749.000000,,2013-03-03 17:32:00,
2013-03-03 11:42:00,46.0,19.0,-100.00,WNW,296,5.0,10.0,34,0.00,,,0.00,749.000000,,2013-03-03 17:42:00,
2013-03-03 11:52:00,46.0,19.0,-100.00,WNW,296,5.0,10.0,34,0.00,,,0.00,749.000000,,2013-03-03 17:52:00,
2013-03-03 12:01:00,46.0,19.0,-100.00,WNW,296,5.0,10.0,34,0.00,,,0.00,749.000000,,2013-03-03 18:01:00,
2013-03-03 12:32:00,49.0,18.0,-100.00,West,269,5.0,12.0,29,0.00,,,0.00,821.000000,,2013-03-03 18:32:00,
2013-03-03 12:42:00,49.0,18.0,-100.00,West,269,5.0,12.0,29,0.00,,,0.00,821.000000,,2013-03-03 18:42:00,
2013-03-03 12:52:00,49.0,18.0,-100.00,West,269,5.0,12.0,29,0.00,,,0.00,821.000000,,2013-03-03 18:52:00,
2013-03-03 13:02:00,49.0,18.0,-100.00,West,269,5.0,12.0,29,0.00,,,0.00,821.000000,,2013-03-03 19:02:00,
2013-03-03 13:32:00,52.0,17.0,-100.00,WNW,282,6.0,14.0,25,0.00,,,0.00,828.000000,,2013-03-03 19:32:00,
2013-03-03 13:42:00,52.0,17.0,-100.00,WNW,282,6.0,14.0,25,0.00,,,0.00,828.000000,,2013-03-03 19:42:00,
2013-03-03 13:52:00,52.0,17.0,-100.00,WNW,282,6.0,14.0,25,0.00,,,0.00,828.000000,,2013-03-03 19:52:00,
2013-03-03 14:01:00,52.0,17.0,-100.00,WNW,282,6.0,14.0,25,0.00,,,0.00,828.000000,,2013-03-03 20:01:00,
2013-03-03 14:32:00,54.0,18.0,-100.00,WSW,242,7.0,16.0,24,0.00,,,0.00,764.000000,,2013-03-03 20:32:00,
2013-03-03 14:43:00,54.0,18.0,-100.00,WSW,242,7.0,16.0,24,0.00,,,0.00,764.000000,,2013-03-03 20:43:00,
2013-03-03 14:53:00,54.0,18.0,-100.00,WSW,242,7.0,16.0,24,0.00,,,0.00,764.000000,,2013-03-03 20:53:00,
2013-03-03 15:02:00,54.0,18.0,-100.00,WSW,242,7.0,16.0,24,0.00,,,0.00,764.000000,,2013-03-03 21:02:00,
2013-03-03 15:32:00,55.0,19.0,-100.00,NW,305,7.0,11.0,24,0.00,,,0.00,646.000000,,2013-03-03 21:32:00,
2013-03-03 15:42:00,55.0,19.0,-100.00,NW,305,7.0,11.0,24,0.00,,,0.00,646.000000,,2013-03-03 21:42:00,
2013-03-03 15:52:00,55.0,19.0,-100.00,NW,305,7.0,11.0,24,0.00,,,0.00,646.000000,,2013-03-03 21:52:00,
2013-03-03 16:01:00,55.0,19.0,-100.00,NW,305,7.0,11.0,24,0.00,,,0.00,646.000000,,2013-03-03 22:01:00,
2013-03-03 16:32:00,56.0,19.0,-100.00,WNW,296,5.0,11.0,23,0.00,,,0.00,471.000000,,2013-03-03 22:32:00,
2013-03-03 16:42:00,56.0,19.0,-100.00,WNW,296,5.0,11.0,23,0.00,,,0.00,471.000000,,2013-03-03 22:42:00,
2013-03-03 16:52:00,56.0,19.0,-100.00,WNW,296,5.0,11.0,23,0.00,,,0.00,471.000000,,2013-03-03 22:52:00,
2013-03-03 17:01:00,56.0,19.0,-100.00,WNW,296,5.0,11.0,23,0.00,,,0.00,471.000000,,2013-03-03 23:01:00,
2013-03-03 17:32:00,56.0,21.0,-100.00,WSW,257,3.0,9.0,25,0.00,,,0.00,263.000000,,2013-03-03 23:32:00,
2013-03-03 17:42:00,56.0,21.0,-100.00,WSW,257,3.0,9.0,25,0.00,,,0.00,263.000000,,2013-03-03 23:42:00,
2013-03-03 17:52:00,56.0,21.0,-100.00,WSW,257,3.0,9.0,25,0.00,,,0.00,263.000000,,2013-03-03 23:52:00,
2013-03-03 18:01:00,56.0,21.0,-100.00,WSW,257,3.0,9.0,25,0.00,,,0.00,263.000000,,2013-03-04 00:01:00,
2013-03-03 18:32:00,49.0,26.0,-100.00,NNW,344,1.0,6.0,40,0.00,,,0.00,64.000000,,2013-03-04 00:32:00,
2013-03-03 18:42:00,49.0,26.0,-100.00,NNW,344,1.0,6.0,40,0.00,,,0.00,64.000000,,2013-03-04 00:42:00,
2013-03-03 18:52:00,49.0,26.0,-100.00,NNW,344,1.0,6.0,40,0.00,,,0.00,64.000000,,2013-03-04 00:52:00,
2013-03-03 19:01:00,49.0,26.0,-100.00,NNW,344,1.0,6.0,40,0.00,,,0.00,64.000000,,2013-03-04 01:01:00,
2013-03-03 19:32:00,42.0,29.0,-100.00,SE,145,2.0,2.0,60,0.00,,,0.00,0.000000,,2013-03-04 01:32:00,
2013-03-03 19:42:00,42.0,29.0,-100.00,SE,145,2.0,2.0,60,0.00,,,0.00,0.000000,,2013-03-04 01:42:00,
2013-03-03 19:52:00,42.0,29.0,-100.00,SE,145,2.0,2.0,60,0.00,,,0.00,0.000000,,2013-03-04 01:52:00,
2013-03-03 20:01:00,42.0,29.0,-100.00,SE,145,2.0,2.0,60,0.00,,,0.00,0.000000,,2013-03-04 02:01:00,
2013-03-03 20:32:00,40.0,29.0,-100.00,South,180,2.0,3.0,64,0.00,,,0.00,0.000000,,2013-03-04 02:32:00,
2013-03-03 20:42:00,40.0,29.0,-100.00,South,180,2.0,3.0,64,0.00,,,0.00,0.000000,,2013-03-04 02:42:00,
2013-03-03 20:52:00,40.0,29.0,-100.00,South,180,2.0,3.0,64,0.00,,,0.00,0.000000,,2013-03-04 02:52:00,
2013-03-03 21:02:00,40.0,29.0,-100.00,South,180,2.0,3.0,64,0.00,,,0.00,0.000000,,2013-03-04 03:02:00,
2013-03-03 21:32:00,38.0,29.0,-100.00,SSE,154,1.0,4.0,70,0.00,,,0.00,0.000000,,2013-03-04 03:32:00,
2013-03-03 21:42:00,38.0,29.0,-100.00,SSE,154,1.0,4.0,70,0.00,,,0.00,0.000000,,2013-03-04 03:42:00,
2013-03-03 21:52:00,38.0,29.0,-100.00,SSE,154,1.0,4.0,70,0.00,,,0.00,0.000000,,2013-03-04 03:52:00,
2013-03-03 22:01:00,38.0,29.0,-100.00,SSE,154,1.0,4.0,70,0.00,,,0.00,0.000000,,2013-03-04 04:01:00,
2013-03-03 22:32:00,36.0,30.0,-100.00,SE,139,3.0,4.0,79,0.00,,,0.00,0.000000,,2013-03-04 04:32:00,
2013-03-03 22:42:00,36.0,30.0,-100.00,SE,139,3.0,4.0,79,0.00,,,0.00,0.000000,,2013-03-04 04:42:00,
2013-03-03 22:52:00,36.0,30.0,-100.00,SE,139,3.0,4.0,79,0.00,,,0.00,0.000000,,2013-03-04 04:52:00,
2013-03-03 23:01:00,36.0,30.0,-100.00,SE,139,3.0,4.0,79,0.00,,,0.00,0.000000,,2013-03-04 05:01:00,
2013-03-03 23:32:00,40.0,28.0,-100.00,South,175,3.0,6.0,62,0.00,,,0.00,0.000000,,2013-03-04 05:32:00,
2013-03-03 23:43:00,40.0,28.0,-100.00,South,175,3.0,6.0,62,0.00,,,0.00,0.000000,,2013-03-04 05:43:00,
2013-03-03 23:52:00,40.0,28.0,-100.00,South,175,3.0,6.0,62,0.00,,,0.00,0.000000,,2013-03-04 05:52:00,